Time;durP1;ratioP1;P1;durP2;ratioP2;P2;SDS_P1;SDS_P2;PMS_P1;PMS_P2;Temp;Humidity;BMP_temperature;BMP_pressure;BME280_temperature;BME280_humidity;BME280_pressure;Samples;Min_cycle;Max_cycle;Signal;HPM_P1;HPM_P2
2021/01/04 00:01:49;;;;;;;33.00;24.23;;;1.00;99.90;;;1.99;91.66;97422.53;5206168;28;20276;-77
2021/01/04 00:04:48;;;;;;;33.60;24.67;;;1.10;99.90;;;2.00;91.28;97419.22;5204894;28;20197;-78
2021/01/04 00:07:53;;;;;;;31.80;23.00;;;1.10;99.90;;;2.06;92.05;97419.75;5205207;28;20257;-76
2021/01/04 00:10:37;;;;;;;31.57;24.27;;;1.10;99.90;;;2.02;92.17;97417.72;5193348;28;20210;-79
2021/01/04 00:13:25;;;;;;;30.60;23.17;;;1.10;99.90;;;2.04;91.74;97416.22;5185045;28;20219;-78
2021/01/04 00:16:05;;;;;;;30.17;23.33;;;1.20;99.90;;;2.07;92.01;97413.09;5184706;28;20284;-77
2021/01/04 00:18:44;;;;;;;31.60;24.03;;;1.20;99.90;;;2.14;91.81;97415.34;5191960;28;20650;-77
2021/01/04 00:21:25;;;;;;;34.40;25.60;;;1.20;99.90;;;2.16;91.36;97417.22;5204864;28;20968;-77
2021/01/04 00:24:04;;;;;;;31.47;23.87;;;1.20;99.90;;;2.16;91.82;97412.19;5204695;28;20199;-76
2021/01/04 00:26:44;;;;;;;33.37;25.20;;;1.20;99.90;;;2.15;91.42;97412.94;5204935;28;20201;-81
2021/01/04 00:29:18;;;;;;;35.93;26.93;;;1.20;99.90;;;2.11;91.46;97413.44;5204867;28;20263;-77
2021/01/04 00:31:56;;;;;;;32.63;25.33;;;1.10;99.90;;;2.11;91.37;97417.59;5202449;28;20595;-76
2021/01/04 00:34:40;;;;;;;34.50;25.67;;;1.20;99.90;;;2.13;91.58;97416.97;5205624;28;20707;-76
2021/01/04 00:37:54;;;;;;;34.80;25.60;;;1.20;99.90;;;2.04;91.22;97416.22;5205162;28;20289;-77
2021/01/04 00:40:39;;;;;;;35.23;25.40;;;1.10;99.90;;;2.15;91.48;97420.50;5204989;28;20613;-77
2021/01/04 00:43:22;;;;;;;33.53;24.87;;;1.20;99.90;;;2.20;90.73;97409.19;5198478;28;20594;-76
2021/01/04 00:45:54;;;;;;;36.20;26.63;;;1.20;99.90;;;2.14;90.91;97413.69;5204970;28;20197;-77
2021/01/04 00:48:35;;;;;;;35.80;26.80;;;1.20;99.90;;;2.14;90.77;97408.66;5203335;28;20213;-77
2021/01/04 00:51:36;;;;;;;36.77;26.27;;;1.20;99.90;;;2.14;91.39;97410.28;5204540;28;20200;-77
2021/01/04 00:54:39;;;;;;;36.43;26.83;;;1.20;99.90;;;2.15;91.28;97420.50;5204433;28;20295;-77
2021/01/04 00:57:55;;;;;;;34.07;25.77;;;1.20;99.90;;;2.23;90.44;97416.97;5167326;28;20204;-77
2021/01/04 01:00:32;;;;;;;35.57;25.47;;;1.30;99.90;;;2.20;91.24;97409.19;5186260;28;20300;-80
2021/01/04 01:03:21;;;;;;;35.17;26.87;;;1.20;99.90;;;2.23;91.58;97414.47;5197447;28;20226;-77
2021/01/04 01:06:03;;;;;;;35.00;25.50;;;1.30;99.90;;;2.23;91.03;97419.50;5184153;28;20814;-76
2021/01/04 01:08:39;;;;;;;35.67;27.07;;;1.20;99.90;;;2.22;90.30;97417.72;5189645;28;20247;-77
2021/01/04 01:11:16;;;;;;;34.40;25.83;;;1.20;99.90;;;2.20;91.24;97420.88;5203243;28;20197;-77
2021/01/04 01:14:06;;;;;;;34.57;26.53;;;1.20;99.90;;;2.14;91.07;97418.72;5204856;28;20587;-77
2021/01/04 01:17:12;;;;;;;34.93;27.20;;;1.20;99.90;;;2.14;90.29;97417.84;5198096;28;20195;-78
2021/01/04 01:19:48;;;;;;;32.93;26.03;;;1.10;99.90;;;2.13;91.46;97416.97;5202276;28;20215;-77
2021/01/04 01:22:28;;;;;;;32.47;25.07;;;1.20;99.90;;;2.10;91.46;97419.25;5203755;28;20671;-77
2021/01/04 01:25:09;;;;;;;31.20;24.43;;;1.20;99.90;;;2.11;91.37;97418.47;5204706;28;20574;-76
2021/01/04 01:28:34;;;;;;;34.83;26.37;;;1.20;99.90;;;2.17;92.06;97426.53;5203441;28;20227;-81
2021/01/04 01:31:33;;;;;;;36.77;26.37;;;1.20;99.90;;;2.16;90.76;97427.31;5204329;28;20213;-76
2021/01/04 01:34:17;;;;;;;31.70;25.93;;;1.10;99.90;;;2.19;90.66;97426.69;5198207;28;20229;-77
2021/01/04 01:37:10;;;;;;;34.43;26.47;;;1.20;99.90;;;2.15;91.46;97428.06;5183978;28;20727;-76
2021/01/04 01:40:41;;;;;;;34.43;27.13;;;1.20;99.90;;;2.16;91.55;97419.75;5183386;28;20297;-78
2021/01/04 01:43:57;;;;;;;32.50;25.47;;;1.20;99.90;;;2.14;90.54;97431.34;5104382;29;20227;-77
2021/01/04 01:46:38;;;;;;;34.83;25.67;;;1.10;99.90;;;2.13;91.16;97432.09;5187889;28;20200;-77
2021/01/04 01:49:40;;;;;;;33.33;26.20;;;1.10;99.90;;;2.12;91.19;97431.97;5197210;28;20205;-80
2021/01/04 01:52:36;;;;;;;33.23;25.57;;;1.10;99.90;;;2.17;91.11;97428.19;5189042;28;20599;-80
2021/01/04 01:55:27;;;;;;;32.00;25.73;;;1.10;99.90;;;2.16;90.85;97429.81;5188813;28;20273;-77
2021/01/04 01:58:48;;;;;;;30.70;25.23;;;1.10;99.90;;;2.10;90.98;97431.84;5187881;28;20304;-78
2021/01/04 02:01:34;;;;;;;32.47;24.30;;;1.10;99.90;;;2.09;91.80;97440.19;5121821;28;20224;-77
2021/01/04 02:04:17;;;;;;;32.43;26.07;;;1.00;99.90;;;2.07;90.79;97430.72;5188077;28;20251;-77
2021/01/04 02:07:05;;;;;;;32.73;24.57;;;1.00;99.90;;;2.02;91.53;97433.72;5197228;28;20199;-76
2021/01/04 02:09:45;;;;;;;35.37;26.23;;;1.00;99.90;;;2.02;91.28;97433.72;5186767;28;20210;-77
2021/01/04 02:12:34;;;;;;;34.93;26.93;;;1.00;99.90;;;2.03;91.39;97429.56;5187861;28;20224;-77
2021/01/04 02:15:15;;;;;;;31.77;25.80;;;1.00;99.90;;;2.06;91.69;97429.84;5188412;28;20301;-77
2021/01/04 02:18:10;;;;;;;36.53;25.07;;;1.00;99.90;;;2.09;91.50;97435.13;5188455;28;20220;-77
2021/01/04 02:21:51;;;;;;;33.93;26.53;;;1.10;99.90;;;2.06;91.81;97434.88;5188589;28;20302;-77
2021/01/04 02:24:27;;;;;;;32.13;25.20;;;1.10;99.90;;;2.08;91.61;97427.44;5187158;28;20214;-78
2021/01/04 02:27:05;;;;;;;34.70;26.40;;;1.10;99.90;;;2.07;91.72;97431.59;5193513;28;20281;-76
2021/01/04 02:29:38;;;;;;;37.80;27.50;;;1.00;99.90;;;2.03;91.45;97434.59;5187018;28;20244;-78
2021/01/04 02:32:10;;;;;;;35.23;26.97;;;1.00;99.90;;;2.03;91.89;97434.59;5189848;28;20216;-77
2021/01/04 02:34:47;;;;;;;34.90;27.23;;;1.00;99.90;;;2.03;91.49;97429.56;5187150;28;20202;-76
2021/01/04 02:37:21;;;;;;;35.33;25.80;;;1.10;99.90;;;2.02;92.25;97432.84;5186724;28;20202;-80
2021/01/04 02:39:58;;;;;;;33.40;25.97;;;1.10;99.90;;;2.03;92.23;97429.56;5199783;28;20220;-77
2021/01/04 02:42:34;;;;;;;34.00;25.77;;;1.00;99.90;;;2.14;91.45;97438.03;5207246;28;20228;-78
2021/01/04 02:45:12;;;;;;;36.77;27.63;;;1.10;99.90;;;2.04;91.65;97441.44;5208180;28;20212;-77
2021/01/04 02:48:10;;;;;;;33.40;25.83;;;1.10;99.90;;;1.95;91.32;97435.63;5204851;28;20628;-77
2021/01/04 02:50:53;;;;;;;35.20;27.13;;;1.00;99.90;;;1.91;91.14;97441.16;5188047;28;20206;-77
2021/01/04 02:53:59;;;;;;;35.07;25.63;;;1.00;99.90;;;1.90;91.08;97435.25;5195277;28;20212;-78
2021/01/04 02:56:45;;;;;;;36.03;26.07;;;0.90;99.90;;;1.89;91.73;97445.19;5188617;28;20245;-77
2021/01/04 02:59:50;;;;;;;32.20;23.90;;;1.00;99.90;;;1.89;92.30;97445.19;5186102;28;20194;-77
2021/01/04 03:02:35;;;;;;;34.80;25.43;;;1.00;99.90;;;1.88;91.90;97439.25;5201952;28;20229;-77
2021/01/04 03:05:10;;;;;;;33.97;24.50;;;1.00;99.90;;;1.91;91.55;97438.63;5206870;28;20198;-77
2021/01/04 03:07:50;;;;;;;37.90;26.80;;;1.00;99.90;;;1.92;91.36;97440.44;5207008;28;20215;-78
2021/01/04 03:10:30;;;;;;;32.20;24.87;;;0.90;99.90;;;1.90;91.49;97440.28;5206798;28;20213;-79
2021/01/04 03:13:14;;;;;;;37.43;26.87;;;1.00;99.90;;;1.88;91.15;97440.91;5196267;28;20229;-77
2021/01/04 03:16:08;;;;;;;35.83;26.93;;;1.00;99.90;;;2.02;90.67;97436.25;5186140;28;20209;-76
2021/01/04 03:18:48;;;;;;;35.90;25.90;;;1.00;99.90;;;1.94;90.95;97439.78;5185831;28;20280;-77
2021/01/04 03:21:25;;;;;;;32.60;26.37;;;1.00;99.90;;;1.92;90.97;97437.91;5187342;28;20698;-79
2021/01/04 03:23:59;;;;;;;34.27;26.23;;;0.90;99.90;;;1.84;91.46;97441.41;5187113;28;20248;-79
2021/01/04 03:26:41;;;;;;;36.67;26.53;;;0.90;99.90;;;1.85;90.91;97428.94;5197727;28;20204;-80
2021/01/04 03:29:14;;;;;;;33.67;26.27;;;0.90;99.90;;;1.84;91.07;97434.75;5208730;28;20211;-79
2021/01/04 03:31:46;;;;;;;35.33;26.23;;;1.00;99.90;;;1.86;91.37;97434.84;5207734;28;20228;-78
2021/01/04 03:34:18;;;;;;;37.27;26.83;;;0.90;99.90;;;1.85;91.12;97423.91;5209118;28;20206;-78
2021/01/04 03:36:50;;;;;;;36.00;26.13;;;0.90;99.90;;;1.96;90.90;97432.34;5207463;28;20205;-77
2021/01/04 03:39:28;;;;;;;34.93;26.47;;;1.00;99.90;;;1.90;91.12;97436.88;5206762;28;20214;-79
2021/01/04 03:42:01;;;;;;;35.73;26.30;;;0.90;99.90;;;1.88;91.54;97430.81;5204789;28;20205;-79
2021/01/04 03:44:34;;;;;;;35.67;25.93;;;1.00;99.90;;;1.86;91.27;97433.25;5207491;28;20202;-79
2021/01/04 03:47:06;;;;;;;32.13;24.87;;;1.00;99.90;;;1.86;91.26;97432.31;5208068;28;20231;-77
2021/01/04 03:49:38;;;;;;;32.80;25.47;;;0.90;99.90;;;1.91;91.93;97431.06;5206150;28;20508;-79
2021/01/04 03:52:10;;;;;;;34.93;25.53;;;1.00;99.90;;;1.96;91.82;97439.91;5208515;28;20228;-78
2021/01/04 03:54:43;;;;;;;31.27;24.57;;;1.00;99.90;;;1.94;91.07;97436.38;5207050;28;20695;-79
2021/01/04 03:57:15;;;;;;;31.80;25.07;;;1.00;99.90;;;1.95;91.75;97433.13;5205934;28;20297;-80
2021/01/04 03:59:48;;;;;;;32.60;25.83;;;1.00;99.90;;;1.90;91.17;97441.94;5206743;28;20263;-77
2021/01/04 04:02:20;;;;;;;35.67;25.53;;;1.00;99.90;;;1.92;91.08;97436.25;5207124;28;20225;-77
2021/01/04 04:04:52;;;;;;;33.40;25.43;;;1.00;99.90;;;1.97;91.76;97432.47;5188272;28;20201;-79
2021/01/04 04:07:25;;;;;;;31.00;24.57;;;1.00;99.90;;;1.99;91.06;97430.09;5188382;28;20220;-77
2021/01/04 04:09:57;;;;;;;31.93;24.50;;;1.00;99.90;;;1.98;90.69;97431.72;5205566;28;20209;-79
2021/01/04 04:12:29;;;;;;;34.60;25.23;;;1.10;99.90;;;2.03;90.84;97434.59;5195363;28;20214;-77
2021/01/04 04:15:04;;;;;;;36.10;26.50;;;1.10;99.90;;;2.07;91.25;97431.59;5197038;28;20721;-79
2021/01/04 04:17:36;;;;;;;34.17;25.47;;;1.10;99.90;;;2.05;90.83;97435.63;5206324;28;20661;-77
2021/01/04 04:20:12;;;;;;;37.00;27.33;;;1.10;99.90;;;2.07;90.96;97436.66;5201407;28;20192;-77
2021/01/04 04:22:47;;;;;;;39.70;28.37;;;1.10;99.90;;;2.07;91.00;97431.59;5205964;28;20226;-77
2021/01/04 04:25:22;;;;;;;34.40;25.67;;;1.10;99.90;;;2.07;90.86;97435.75;5201646;28;20567;-79
2021/01/04 04:27:55;;;;;;;35.13;26.67;;;1.10;99.90;;;2.03;90.59;97440.56;5205894;28;20189;-79
2021/01/04 04:30:28;;;;;;;33.77;26.30;;;1.10;99.90;;;2.02;91.27;97442.94;5188717;28;20685;-80
2021/01/04 04:33:00;;;;;;;34.33;26.57;;;1.10;99.90;;;2.07;90.27;97444.19;5188088;28;20228;-76
2021/01/04 04:35:33;;;;;;;34.73;25.97;;;1.00;99.90;;;2.05;90.84;97440.66;5184249;28;20202;-78
2021/01/04 04:38:05;;;;;;;35.80;26.10;;;1.00;99.90;;;1.99;90.23;97442.69;5182263;28;20214;-78
2021/01/04 04:40:37;;;;;;;34.63;26.17;;;1.00;99.90;;;2.03;89.78;97445.59;5194379;28;20653;-78
2021/01/04 04:43:14;;;;;;;35.47;26.80;;;1.00;99.90;;;1.97;90.56;97445.06;5192876;28;20533;-78
2021/01/04 04:45:50;;;;;;;30.17;23.57;;;1.00;99.90;;;1.99;90.46;97450.25;5200782;28;20583;-81
2021/01/04 04:48:43;;;;;;;34.20;25.70;;;1.00;99.90;;;1.98;91.04;97448.50;5182010;28;20192;-78
2021/01/04 04:51:52;;;;;;;35.73;26.17;;;1.00;99.90;;;2.02;91.21;97440.41;5202752;28;20748;-81
2021/01/04 04:54:45;;;;;;;34.93;25.93;;;1.10;99.90;;;2.02;90.85;97442.94;5174364;28;20228;-77
2021/01/04 04:57:38;;;;;;;32.93;24.93;;;1.10;99.90;;;2.02;90.60;97448.84;5188367;28;20288;-79
2021/01/04 05:00:29;;;;;;;36.07;26.27;;;1.00;99.90;;;1.98;90.83;97445.97;5182868;28;20207;-79
2021/01/04 05:03:29;;;;;;;37.70;27.13;;;1.00;99.90;;;1.88;91.26;97444.31;5183554;28;20229;-78
2021/01/04 05:06:18;;;;;;;38.33;27.13;;;1.00;99.90;;;1.91;90.81;97451.25;5181458;28;20196;-77
2021/01/04 05:09:12;;;;;;;36.13;25.77;;;1.00;99.90;;;1.95;90.94;97444.06;5183099;28;20209;-79
2021/01/04 05:11:48;;;;;;;34.23;26.07;;;1.00;99.90;;;1.97;90.37;97446.69;5182623;28;20214;-78
2021/01/04 05:14:27;;;;;;;36.57;26.23;;;1.00;99.90;;;1.95;90.80;97455.78;5182835;28;20200;-76
2021/01/04 05:17:24;;;;;;;34.87;25.67;;;1.00;99.90;;;1.94;91.15;97454.00;5184265;28;20206;-78
2021/01/04 05:20:22;;;;;;;33.17;25.27;;;1.10;99.90;;;1.97;91.32;97464.34;5201441;28;20255;-78
2021/01/04 05:23:28;;;;;;;32.27;26.07;;;1.00;99.90;;;1.99;90.24;97462.84;5202997;28;20227;-79
2021/01/04 05:26:26;;;;;;;36.53;27.37;;;1.10;99.90;;;2.01;90.42;97466.38;5203705;28;20193;-79
2021/01/04 05:29:33;;;;;;;34.33;27.90;;;1.00;99.90;;;1.97;90.29;97466.88;5203460;28;20220;-79
2021/01/04 05:32:44;;;;;;;32.97;26.07;;;1.00;99.90;;;1.95;90.08;97465.88;5202721;28;20326;-79
2021/01/04 05:35:18;;;;;;;33.77;26.10;;;1.00;99.90;;;1.93;90.65;97459.81;5188359;28;20193;-78
2021/01/04 05:38:00;;;;;;;36.13;27.43;;;1.00;99.90;;;1.99;90.23;97462.84;5200941;28;20571;-79
2021/01/04 05:41:15;;;;;;;34.23;25.93;;;1.00;99.90;;;1.95;90.21;97461.72;5199173;28;20204;-78
2021/01/04 05:44:09;;;;;;;34.07;26.47;;;1.00;99.90;;;1.97;90.89;97466.88;5196369;28;20226;-77
2021/01/04 05:46:48;;;;;;;32.93;25.80;;;1.10;99.90;;;1.95;90.26;97470.91;5204531;28;20762;-79
2021/01/04 05:49:29;;;;;;;34.30;26.20;;;1.00;99.90;;;1.98;90.81;97461.97;5196061;28;20194;-79
2021/01/04 05:52:03;;;;;;;33.70;26.40;;;1.00;99.90;;;2.06;89.82;97462.63;5181840;28;20218;-77
2021/01/04 05:54:37;;;;;;;35.30;26.63;;;1.00;99.90;;;2.03;89.80;97457.28;5182899;28;20278;-79
2021/01/04 05:57:12;;;;;;;33.13;25.23;;;1.10;99.90;;;2.01;90.45;97456.31;5197887;28;20208;-77
2021/01/04 05:59:50;;;;;;;35.10;25.87;;;1.00;99.90;;;2.04;90.65;97446.47;5198988;28;20522;-77
2021/01/04 06:02:26;;;;;;;33.13;25.27;;;1.00;99.90;;;2.01;90.55;97451.25;5197132;28;20229;-79
2021/01/04 06:05:11;;;;;;;35.23;26.70;;;1.10;99.90;;;1.99;90.85;97451.13;5200893;28;20280;-79
2021/01/04 06:07:46;;;;;;;33.77;25.23;;;1.10;99.90;;;1.90;90.09;97450.38;5185468;28;20201;-79
2021/01/04 06:10:23;;;;;;;37.33;25.93;;;1.00;99.90;;;1.89;90.74;97447.69;5187680;28;20205;-81
2021/01/04 06:13:16;;;;;;;33.73;25.20;;;1.00;99.90;;;1.94;90.71;97456.53;5217603;28;20228;-81
2021/01/04 06:15:48;;;;;;;31.70;24.43;;;1.00;99.90;;;1.97;90.07;97454.25;5203531;28;20233;-80
2021/01/04 06:18:26;;;;;;;32.50;24.83;;;1.00;99.90;;;2.02;89.83;97458.94;5205646;28;20283;-77
2021/01/04 06:21:16;;;;;;;35.60;26.17;;;1.10;99.90;;;2.01;90.88;97456.31;5207985;28;20434;-79
2021/01/04 06:23:51;;;;;;;34.87;25.97;;;1.00;99.90;;;1.98;90.40;97459.44;5191604;28;20226;-77
2021/01/04 06:26:24;;;;;;;33.90;26.07;;;1.00;99.90;;;1.98;90.71;97456.94;5191500;28;20240;-76
2021/01/04 06:29:01;;;;;;;35.43;26.57;;;1.00;99.90;;;1.98;90.18;97458.56;5209155;28;20198;-78
2021/01/04 06:31:42;;;;;;;37.20;27.20;;;1.00;99.90;;;1.98;90.61;97467.00;5203337;28;20220;-79
2021/01/04 06:34:24;;;;;;;32.77;24.77;;;1.00;99.90;;;2.01;90.29;97463.88;5208319;28;20200;-79
2021/01/04 06:37:00;;;;;;;31.17;24.80;;;1.00;99.90;;;1.99;89.90;97465.38;5196693;28;20205;-79
2021/01/04 06:39:34;;;;;;;34.33;25.90;;;1.00;99.90;;;2.01;90.34;97466.38;5204378;28;20463;-79
2021/01/04 06:42:12;;;;;;;33.93;26.10;;;1.00;99.90;;;2.03;89.76;97468.28;5183374;28;20220;-79
2021/01/04 06:45:04;;;;;;;32.03;24.87;;;1.00;99.90;;;2.03;90.84;97468.28;5198189;28;20316;-79
2021/01/04 06:47:48;;;;;;;35.40;26.27;;;1.10;99.90;;;2.04;90.38;97459.06;5204309;28;20202;-77
2021/01/04 06:50:30;;;;;;;33.83;25.87;;;1.10;99.90;;;2.05;89.83;97463.34;5204305;28;20566;-79
2021/01/04 06:53:53;;;;;;;34.83;25.27;;;1.00;99.90;;;1.99;90.57;97462.84;5207706;28;20222;-76
2021/01/04 06:57:14;;;;;;;31.93;24.70;;;1.00;99.90;;;1.97;90.49;97464.34;5189465;28;20233;-79
2021/01/04 07:00:22;;;;;;;30.97;24.37;;;1.00;99.90;;;1.97;90.12;97469.38;5206874;28;20288;-77
2021/01/04 07:03:36;;;;;;;36.87;25.80;;;1.00;99.90;;;1.96;89.78;97465.09;5207219;28;20236;-77
2021/01/04 07:06:53;;;;;;;34.73;25.33;;;1.00;99.90;;;1.96;90.35;97462.59;5190236;28;20293;-79
2021/01/04 07:09:59;;;;;;;31.77;25.20;;;1.00;99.90;;;1.91;90.32;97469.75;5187102;28;20546;-79
2021/01/04 07:12:56;;;;;;;31.80;23.83;;;1.00;99.90;;;1.94;89.94;97471.66;5190495;28;20236;-79
2021/01/04 07:15:31;;;;;;;31.47;24.63;;;1.00;99.90;;;1.96;89.69;97468.50;5206244;28;20200;-76
2021/01/04 07:18:23;;;;;;;31.97;25.47;;;1.00;99.90;;;1.98;89.86;97472.03;5208791;28;20203;-80
2021/01/04 07:21:17;;;;;;;33.40;25.77;;;1.00;99.90;;;1.96;89.82;97475.19;5189346;28;20291;-79
2021/01/04 07:24:32;;;;;;;35.63;25.97;;;1.00;99.90;;;1.98;90.51;97473.69;5187844;28;20720;-78
2021/01/04 07:27:22;;;;;;;32.87;24.70;;;1.00;99.90;;;2.02;89.98;97473.19;5186939;28;20309;-79
2021/01/04 07:30:13;;;;;;;33.77;25.63;;;1.00;99.90;;;2.05;89.85;97473.44;5206194;28;20297;-80
2021/01/04 07:33:03;;;;;;;32.13;24.90;;;1.10;99.90;;;2.09;89.70;97472.94;5208110;28;20213;-80
2021/01/04 07:35:39;;;;;;;34.30;25.00;;;1.10;99.90;;;2.13;89.56;97471.56;5200875;28;20198;-78
2021/01/04 07:38:29;;;;;;;33.77;25.33;;;1.10;99.90;;;2.06;89.70;97475.22;5187810;28;20292;-78
2021/01/04 07:41:18;;;;;;;32.73;24.73;;;1.10;99.90;;;2.10;89.73;97477.22;5194989;28;20288;-76
2021/01/04 07:44:25;;;;;;;35.20;24.90;;;1.20;99.90;;;2.14;89.82;97476.72;5191485;28;20222;-79
2021/01/04 07:48:02;;;;;;;32.23;23.80;;;1.20;99.90;;;2.00;89.49;97483.16;5204696;28;20209;-78
2021/01/04 07:51:08;;;;;;;32.13;23.83;;;1.10;99.90;;;2.00;90.26;97479.72;5177383;28;20294;-81
2021/01/04 07:54:37;;;;;;;33.67;24.70;;;1.10;99.90;;;2.06;89.11;97481.88;5187935;28;20191;-80
2021/01/04 07:57:57;;;;;;;33.73;24.97;;;1.10;99.90;;;2.07;89.82;97483.66;5190087;28;20228;-80
2021/01/04 08:01:11;;;;;;;33.87;23.77;;;1.10;99.90;;;2.06;89.25;97480.25;5207108;28;20183;-79
2021/01/04 08:04:22;;;;;;;33.33;25.37;;;1.10;99.90;;;2.11;90.10;97478.97;5212573;28;20296;-79
2021/01/04 08:07:40;;;;;;;29.70;22.83;;;1.20;99.90;;;2.15;89.04;97491.09;5209200;28;20202;-79
2021/01/04 08:11:02;;;;;;;32.80;25.33;;;1.20;99.90;;;2.10;89.96;97488.94;5200757;28;20281;-80
2021/01/04 08:14:20;;;;;;;32.33;24.87;;;1.10;99.90;;;2.07;89.33;97487.06;5189898;28;20238;-79
2021/01/04 08:16:54;;;;;;;35.30;27.10;;;1.10;99.90;;;2.07;89.71;97492.09;5186047;28;20548;-77
2021/01/04 08:19:29;;;;;;;34.27;25.63;;;1.10;99.90;;;2.14;89.50;97490.94;5195514;28;20194;-79
2021/01/04 08:22:20;;;;;;;35.17;26.30;;;1.20;99.90;;;2.18;88.81;97491.34;5212527;28;20280;-79
2021/01/04 08:25:08;;;;;;;36.43;26.83;;;1.20;99.90;;;2.18;89.84;97487.94;5213191;28;20217;-82
2021/01/04 08:28:00;;;;;;;33.00;26.03;;;1.20;99.90;;;2.20;88.96;97484.81;5206761;28;20193;-81
2021/01/04 08:30:40;;;;;;;36.10;26.23;;;1.30;99.90;;;2.22;89.41;97493.34;5212844;28;20257;-81
2021/01/04 08:33:23;;;;;;;34.80;25.80;;;1.20;99.90;;;2.22;89.66;97492.47;5212248;28;20218;-80
2021/01/04 08:35:56;;;;;;;33.37;26.73;;;1.20;99.90;;;2.19;89.33;97488.06;5211291;28;20194;-80
2021/01/04 08:38:38;;;;;;;35.60;27.43;;;1.20;99.90;;;2.28;89.27;97492.97;5203526;28;20260;-78
2021/01/04 08:41:30;;;;;;;33.00;24.47;;;1.30;99.90;;;2.29;89.48;97493.84;5196792;28;20576;-79
2021/01/04 08:44:14;;;;;;;36.53;25.83;;;1.40;99.90;;;2.29;89.85;97496.38;5205416;28;20308;-79
2021/01/04 08:46:47;;;;;;;40.63;29.70;;;1.30;99.90;;;2.29;88.71;97496.38;5219591;28;20210;-79
2021/01/04 08:49:25;;;;;;;37.10;29.03;;;1.30;99.90;;;2.35;88.25;97502.84;5220270;28;20202;-80
2021/01/04 08:51:58;;;;;;;36.70;27.90;;;1.40;99.90;;;2.32;89.04;97499.16;5207646;28;20305;-79
2021/01/04 08:54:32;;;;;;;39.00;28.17;;;1.40;99.90;;;2.35;88.92;97504.47;5208985;28;20206;-80
2021/01/04 09:01:58;;;;;;;36.47;26.93;;;1.50;99.90;;;2.43;89.00;97516.03;5170483;28;20218;-78
2021/01/04 09:08:53;;;;;;;34.67;24.80;;;1.50;99.90;;;2.35;88.38;97512.91;5174929;28;20230;-79
2021/01/04 09:11:25;;;;;;;39.17;27.40;;;1.40;99.90;;;2.39;88.74;97514.91;5188458;28;20309;-79
2021/01/04 09:13:58;;;;;;;34.97;25.77;;;1.40;99.90;;;2.37;88.13;97518.94;5186490;28;20286;-79
2021/01/04 09:16:34;;;;;;;36.07;27.03;;;1.40;99.90;;;2.37;88.66;97525.63;5211399;28;20197;-79
2021/01/04 09:19:09;;;;;;;36.27;26.73;;;1.40;99.90;;;2.43;88.35;97516.97;5206290;28;20564;-78
2021/01/04 09:21:45;;;;;;;34.23;24.77;;;1.40;99.90;;;2.37;88.40;97524.00;5206379;28;20239;-79
2021/01/04 09:24:35;;;;;;;31.57;24.67;;;1.40;99.90;;;2.35;88.27;97519.59;5205835;28;20307;-79
2021/01/04 09:27:26;;;;;;;36.60;26.77;;;1.40;99.90;;;2.38;88.11;97513.16;5189987;28;20213;-79
2021/01/04 09:30:05;;;;;;;33.13;26.50;;;1.40;99.90;;;2.35;88.48;97512.91;5185237;28;20655;-79
2021/01/04 09:32:41;;;;;;;34.90;26.17;;;1.50;99.90;;;2.38;88.62;97509.78;5192545;28;20217;-78
2021/01/04 09:35:19;;;;;;;32.93;26.30;;;1.50;99.90;;;2.40;88.49;97510.75;5206876;28;20198;-79
2021/01/04 09:38:00;;;;;;;34.73;26.77;;;1.50;99.90;;;2.38;88.70;97509.78;5205994;28;20669;-78
2021/01/04 09:40:37;;;;;;;33.07;26.37;;;1.50;99.90;;;2.48;88.63;97505.59;5203633;28;20259;-78
2021/01/04 09:43:12;;;;;;;34.13;27.53;;;1.60;99.90;;;2.50;88.85;97494.75;5200269;28;20263;-78
2021/01/04 09:45:44;;;;;;;32.47;26.57;;;1.60;99.90;;;2.57;88.42;97492.84;5206800;28;20554;-78
2021/01/04 09:48:28;;;;;;;35.60;27.53;;;1.60;99.90;;;2.58;88.59;97494.63;5205335;28;20194;-79
2021/01/04 09:51:04;;;;;;;31.60;25.23;;;1.70;99.90;;;2.60;88.27;97489.69;5206280;28;20701;-78
2021/01/04 09:53:38;;;;;;;34.63;25.57;;;1.70;99.90;;;2.63;88.39;97483.28;5206576;28;20481;-78
2021/01/04 09:56:14;;;;;;;34.47;26.57;;;1.70;99.90;;;2.67;88.16;97486.91;5197501;28;20202;-78
2021/01/04 09:58:47;;;;;;;33.57;26.03;;;1.70;99.90;;;2.77;87.91;97481.84;5203451;28;20193;-78
2021/01/04 10:01:19;;;;;;;38.13;27.93;;;1.70;99.90;;;2.81;86.84;97483.88;5204941;28;20649;-78
2021/01/04 10:03:54;;;;;;;35.50;26.17;;;1.70;99.90;;;2.81;86.09;97480.47;5210260;28;20225;-78
2021/01/04 10:06:33;;;;;;;35.10;27.87;;;1.70;99.90;;;2.71;86.82;97482.22;5209984;28;20197;-78
2021/01/04 10:09:13;;;;;;;34.77;27.57;;;1.70;99.90;;;2.71;86.82;97484.75;5209379;28;20194;-78
2021/01/04 10:11:49;;;;;;;32.47;25.77;;;1.70;99.90;;;2.70;86.69;97484.63;5205822;28;20214;-78
2021/01/04 10:14:21;;;;;;;33.27;27.63;;;1.70;99.90;;;2.78;86.91;97485.28;5189907;28;20207;-77
2021/01/04 10:16:58;;;;;;;34.03;26.27;;;1.80;99.90;;;2.82;87.36;97484.75;5208236;28;20209;-79
2021/01/04 10:19:37;;;;;;;31.63;25.67;;;1.80;99.90;;;2.65;85.65;97486.78;5199710;28;20540;-78
2021/01/04 10:22:15;;;;;;;37.73;29.63;;;1.80;99.90;;;2.81;86.43;97488.03;5199148;28;20585;-77
2021/01/04 10:24:54;;;;;;;40.73;33.17;;;1.80;99.90;;;2.80;85.42;97482.06;5192563;28;20227;-77
2021/01/04 10:27:30;;;;;;;36.10;28.33;;;1.80;99.90;;;2.85;86.69;97485.00;5199936;28;20212;-77
2021/01/04 10:30:25;;;;;;;30.57;24.73;;;1.90;99.90;;;2.86;86.46;97479.16;5193891;28;20206;-80
2021/01/04 10:33:09;;;;;;;31.50;25.83;;;1.90;99.90;;;2.89;85.63;97482.84;5189555;28;20296;-79
2021/01/04 10:35:41;;;;;;;33.60;26.10;;;1.90;99.90;;;2.91;86.04;97485.47;5206423;28;20199;-78
2021/01/04 10:38:21;;;;;;;29.83;23.90;;;1.90;99.90;;;2.91;86.28;97481.31;5197858;28;20206;-80
2021/01/04 10:40:53;;;;;;;29.67;24.07;;;1.90;99.90;;;2.96;86.13;97483.31;5190245;28;20203;-78
2021/01/04 10:43:27;;;;;;;31.20;25.83;;;2.00;99.90;;;2.98;86.71;97482.69;5194383;28;20590;-79
2021/01/04 10:46:34;;;;;;;30.80;23.93;;;2.10;99.90;;;2.89;85.60;97482.84;5206602;28;20224;-79
2021/01/04 10:49:09;;;;;;;31.17;23.87;;;2.00;99.90;;;3.03;84.21;97486.44;5197972;28;20683;-80
2021/01/04 10:51:51;;;;;;;29.80;24.57;;;2.10;99.90;;;3.02;84.38;97479.63;5202066;28;20229;-80
2021/01/04 10:54:38;;;;;;;30.63;24.17;;;2.00;99.90;;;3.04;83.09;97478.13;5198396;28;20219;-80
2021/01/04 10:57:22;;;;;;;26.83;22.60;;;2.10;99.90;;;3.04;81.48;97478.13;5191551;28;20237;-79
2021/01/04 11:00:03;;;;;;;29.87;24.20;;;2.00;99.90;;;2.96;81.06;97475.75;5186091;28;20628;-80
2021/01/04 11:02:39;;;;;;;30.20;23.77;;;2.00;99.90;;;2.83;80.29;97471.34;5192005;28;20224;-79
2021/01/04 11:05:14;;;;;;;27.20;22.77;;;2.00;99.90;;;2.98;79.21;97477.66;5195382;28;20232;-79
2021/01/04 11:07:47;;;;;;;30.80;23.90;;;2.00;99.90;;;2.96;78.87;97474.09;5186274;28;20648;-80
2021/01/04 11:10:26;;;;;;;30.60;24.60;;;2.10;99.90;;;2.80;79.03;97466.94;5186061;28;20242;-79
2021/01/04 11:13:00;;;;;;;29.87;23.50;;;2.00;99.90;;;2.71;78.46;97461.16;5189056;28;20227;-78
2021/01/04 11:15:36;;;;;;;28.97;24.03;;;2.00;99.90;;;2.71;78.43;97457.00;5193974;28;20600;-76
2021/01/04 11:18:13;;;;;;;29.93;24.83;;;1.90;99.90;;;2.73;79.32;97454.59;5202963;28;20220;-77
2021/01/04 11:20:45;;;;;;;30.50;24.03;;;1.90;99.90;;;2.70;80.03;97450.19;5226215;28;20215;-78
2021/01/04 11:23:17;;;;;;;27.70;22.63;;;1.90;99.90;;;2.68;77.62;97446.66;5226281;28;20245;-78
2021/01/04 11:25:49;;;;;;;25.20;21.50;;;2.00;99.90;;;2.70;78.30;97444.28;5211561;28;20225;-78
2021/01/04 11:28:21;;;;;;;28.00;21.70;;;1.90;99.90;;;2.57;77.45;97436.47;5202584;28;20637;-78
2021/01/04 11:31:00;;;;;;;24.07;20.33;;;1.80;99.90;;;2.65;77.51;97446.41;5210529;28;20300;-78
2021/01/04 11:33:32;;;;;;;24.87;20.10;;;1.80;99.90;;;2.71;77.77;97439.34;5225779;28;20212;-77
2021/01/04 11:36:06;;;;;;;24.87;21.37;;;1.90;99.90;;;2.74;78.04;97436.19;5225478;28;20211;-77
2021/01/04 11:38:38;;;;;;;26.13;21.83;;;1.90;99.90;;;2.81;78.82;97437.56;5225061;28;20216;-77
2021/01/04 11:41:13;;;;;;;28.67;21.60;;;2.00;99.90;;;2.76;78.74;97441.34;5199810;28;20600;-78
2021/01/04 11:43:47;;;;;;;24.83;20.50;;;2.00;99.90;;;2.73;79.88;97431.03;5184746;28;20228;-77